Weather reports worldwide

Advertisment
Punta Galea Golf, Spain (8059): temperature & dewpoint: 10.09.2019 05:00:00 - 16.09.2019 05:00:00 (CEST)Punta Galea Golf, Spain (8059): wind speed & gusts: 10.09.2019 05:00:00 - 16.09.2019 05:00:00 (CEST)Punta Galea Golf, Spain (8059): wind direction: 10.09.2019 05:00:00 - 16.09.2019 05:00:00 (CEST)Punta Galea Golf, Spain (8059): reduced air pressure: 10.09.2019 05:00:00 - 16.09.2019 05:00:00 (CEST)Punta Galea Golf, Spain (8059): precipitation: 10.09.2019 05:00:00 - 16.09.2019 05:00:00 (CEST)
Date & Time tt [°C] td [°C] ff [km/h] ff [kn] fx [km/h] fx [kn] dd ppp [hPa] rr [mm]
16.09.2019 05:00:00 - - - - - - - - -
16.09.2019 04:00:00 18,0 17,4 1 0 11 6 S 1021,0 0,0
16.09.2019 03:00:00 18,4 17,8 7 4 12 6 S 1021,4 1,4
16.09.2019 02:00:00 18,6 17,6 4 2 14 8 S 1021,3 -
16.09.2019 01:00:00 19,1 17,9 9 5 16 9 S 1021,2 0,0
16.09.2019 00:00:00 19,0 17,7 9 5 18 10 SSE 1021,5 0,0
15.09.2019 23:00:00 19,4 17,7 9 5 21 11 S 1021,8 0,2
15.09.2019 22:00:00 19,3 17,9 8 4 14 8 SSE 1021,7 0,0
15.09.2019 21:00:00 18,6 17,8 5 3 14 8 S 1021,0 0,0
15.09.2019 20:00:00 18,8 18,0 7 4 15 8 S 1020,3 -
15.09.2019 19:00:00 18,8 18,0 9 5 21 12 SSE 1020,7 0,6
15.09.2019 18:00:00 19,7 18,4 9 5 24 13 SE 1021,2 0,7
15.09.2019 17:00:00 21,4 20,1 5 3 12 6 SSE 1021,8 0,3
15.09.2019 16:00:00 21,4 20,1 3 2 12 7 NW 1022,2 0,0
15.09.2019 15:00:00 21,7 20,3 8 4 13 7 NNE 1022,2 0,0
15.09.2019 14:00:00 22,4 20,9 8 4 15 8 N 1022,2 -
15.09.2019 13:00:00 22,4 19,8 8 4 14 8 NNE 1022,7 0,0
15.09.2019 12:00:00 23,0 17,9 7 4 14 7 SE 1022,9 0,0
15.09.2019 11:00:00 20,4 18,3 8 4 14 8 SSE 1023,2 0,0
15.09.2019 10:00:00 19,7 18,0 6 4 15 8 S 1022,7 0,0
15.09.2019 09:00:00 18,2 16,9 9 5 16 8 S 1022,8 0,0
15.09.2019 08:00:00 17,8 16,5 11 6 18 10 S 1022,9 -
15.09.2019 07:00:00 17,9 16,6 9 5 16 8 S 1022,4 0,0
15.09.2019 06:00:00 17,8 16,6 5 3 18 10 S 1022,4 0,0
15.09.2019 05:00:00 17,7 16,6 10 5 14 8 S 1022,8 0,0
15.09.2019 04:00:00 18,0 16,8 9 5 13 7 S 1023,2 0,0
15.09.2019 03:00:00 17,9 16,7 5 3 9 5 S 1023,7 0,0
15.09.2019 02:00:00 18,7 17,4 2 1 6 3 SSE 1023,9 -
15.09.2019 01:00:00 19,4 18,1 5 3 12 7 WSW 1023,9 0,0
15.09.2019 00:00:00 19,6 18,2 4 2 8 4 NW 1024,0 0,0
14.09.2019 23:00:00 19,7 17,5 4 2 7 4 S 1023,9 0,0
14.09.2019 22:00:00 20,3 17,9 3 1 5 3 W 1024,0 0,0
14.09.2019 21:00:00 20,7 18,5 5 3 12 7 WSW 1024,1 0,0
14.09.2019 20:00:00 21,5 18,7 5 3 12 7 W 1023,4 -
14.09.2019 19:00:00 25,0 17,9 2 1 17 9 SSW 1023,0 0,0
14.09.2019 18:00:00 24,3 18,5 10 6 21 11 NE 1023,0 0,0
14.09.2019 17:00:00 25,5 20,1 7 4 16 8 NNE 1023,3 0,0
14.09.2019 16:00:00 24,2 20,1 11 6 26 14 NE 1023,7 0,0
14.09.2019 15:00:00 23,3 19,1 12 6 23 13 NE 1024,3 0,0
14.09.2019 14:00:00 23,6 18,5 11 6 20 11 NE 1025,0 -
14.09.2019 13:00:00 24,6 19,0 5 3 9 5 NNE 1025,3 0,0
14.09.2019 12:00:00 24,6 18,1 6 3 13 7 ESE 1025,8 0,0
14.09.2019 11:00:00 22,7 18,7 7 4 13 7 SE 1026,5 0,0
14.09.2019 10:00:00 19,7 18,0 1 0 16 9 NNW 1026,5 0,0
14.09.2019 09:00:00 17,9 17,1 3 2 11 6 ESE 1026,4 0,0
14.09.2019 08:00:00 16,9 16,2 8 4 12 7 S 1025,8 -
14.09.2019 07:00:00 17,3 16,6 6 3 17 9 S 1026,0 0,0
14.09.2019 06:00:00 17,3 16,6 9 5 17 9 S 1025,8 0,0
14.09.2019 05:00:00 17,0 16,4 9 5 16 9 S 1026,1 0,0
14.09.2019 04:00:00 16,9 16,2 9 5 14 8 S 1026,5 0,0
14.09.2019 03:00:00 17,1 16,5 8 4 12 6 S 1026,9 0,0
14.09.2019 02:00:00 17,5 16,9 8 4 12 6 S 1027,7 -
14.09.2019 01:00:00 17,3 16,6 7 4 10 6 S 1028,0 0,0
14.09.2019 00:00:00 17,4 16,6 1 0 4 2 SSW 1028,1 0,0
13.09.2019 23:00:00 18,3 17,5 1 1 3 1 WSW 1028,3 0,0
13.09.2019 22:00:00 18,7 17,9 0 0 5 3 N 1028,2 0,0
13.09.2019 21:00:00 19,1 18,1 1 1 4 2 W 1028,1 0,0
13.09.2019 20:00:00 19,8 18,6 3 1 8 4 NW 1027,9 -
13.09.2019 19:00:00 20,3 19,1 6 3 10 6 NW 1028,1 0,0
13.09.2019 18:00:00 20,8 19,4 5 3 10 5 N 1028,2 0,0
13.09.2019 17:00:00 20,5 18,8 5 3 12 7 NW 1028,5 0,0
13.09.2019 16:00:00 20,7 18,8 6 3 13 7 NW 1028,9 0,0
13.09.2019 15:00:00 21,3 19,1 8 4 15 8 N 1029,1 0,0
13.09.2019 14:00:00 21,4 19,0 8 5 14 7 N 1029,3 -
13.09.2019 13:00:00 20,4 18,0 5 3 10 5 N 1030,1 0,0
13.09.2019 12:00:00 19,9 17,7 3 2 9 5 N 1030,6 0,0
13.09.2019 11:00:00 18,6 16,2 6 4 16 9 SSE 1030,2 0,0
13.09.2019 10:00:00 15,9 14,8 9 5 16 9 SSE 1030,6 0,0
13.09.2019 09:00:00 14,7 14,0 9 5 16 8 S 1030,6 0,0
13.09.2019 08:00:00 13,6 13,0 10 5 16 8 SSE 1030,9 -
13.09.2019 07:00:00 13,3 12,6 10 5 15 8 SSE 1031,0 0,0
13.09.2019 06:00:00 13,5 12,8 9 5 15 8 S 1030,4 0,0
13.09.2019 05:00:00 13,9 13,3 9 5 12 7 SSE 1031,0 0,0
13.09.2019 04:00:00 13,9 13,2 8 4 13 7 SSE 1031,1 0,0
13.09.2019 03:00:00 14,3 13,6 8 5 11 6 S 1031,3 0,0
13.09.2019 02:00:00 14,8 13,9 7 4 9 5 SSE 1031,3 -
13.09.2019 01:00:00 15,1 13,9 6 3 11 6 S 1031,6 0,0
13.09.2019 00:00:00 15,4 13,8 0 0 4 2 N 1031,9 0,0
12.09.2019 23:00:00 16,1 14,4 4 2 6 3 SSE 1031,6 0,0
12.09.2019 22:00:00 16,8 14,8 4 2 7 4 SE 1031,6 0,0
12.09.2019 21:00:00 17,4 15,3 2 1 11 6 S 1031,3 0,0
12.09.2019 20:00:00 18,5 16,0 8 4 20 11 ENE 1030,9 -
12.09.2019 19:00:00 19,1 16,9 13 7 24 13 NE 1030,8 0,0
12.09.2019 18:00:00 19,7 16,7 13 7 25 14 NE 1030,7 0,0
12.09.2019 17:00:00 19,9 16,0 14 8 28 15 NE 1030,9 0,0
12.09.2019 16:00:00 20,5 15,9 16 9 29 16 ENE 1031,3 0,0
12.09.2019 15:00:00 20,4 16,4 17 9 31 17 ENE 1031,7 0,0
12.09.2019 14:00:00 20,3 16,3 18 10 28 15 NE 1032,0 -
12.09.2019 13:00:00 20,8 17,1 8 5 15 8 NNE 1032,7 0,0
12.09.2019 12:00:00 19,4 16,0 7 4 16 8 E 1032,8 0,0
12.09.2019 11:00:00 18,6 16,0 6 3 12 6 SSE 1032,6 0,0
12.09.2019 10:00:00 16,6 15,8 7 4 13 7 S 1032,5 0,0
12.09.2019 09:00:00 14,3 13,7 7 4 13 7 S 1032,1 0,0
12.09.2019 08:00:00 13,9 13,3 8 4 10 6 S 1031,7 -
12.09.2019 07:00:00 14,1 13,5 7 4 11 6 S 1031,4 0,0
12.09.2019 06:00:00 14,5 13,9 8 4 11 6 S 1031,4 0,0
12.09.2019 05:00:00 14,5 13,9 7 4 11 6 S 1031,3 0,0
12.09.2019 04:00:00 14,8 14,1 6 4 10 6 SSE 1031,2 0,0
12.09.2019 03:00:00 14,6 13,9 5 3 8 4 S 1031,4 0,0
12.09.2019 02:00:00 14,9 14,1 7 4 9 5 S 1031,8 -
12.09.2019 01:00:00 15,5 14,5 6 3 8 4 S 1031,8 0,0
12.09.2019 00:00:00 16,0 14,9 5 3 8 4 SSE 1031,7 0,0
11.09.2019 23:00:00 17,1 15,6 4 2 10 6 ESE 1031,8 0,0
11.09.2019 22:00:00 18,1 15,7 5 3 11 6 WNW 1031,0 0,0
11.09.2019 21:00:00 18,0 15,4 5 3 12 7 NW 1030,4 0,0
11.09.2019 20:00:00 18,9 15,8 4 2 16 9 NW 1030,0 -
11.09.2019 19:00:00 19,9 16,1 5 3 22 12 N 1029,8 0,0
11.09.2019 18:00:00 20,4 16,4 9 5 22 12 N 1029,7 0,0
11.09.2019 17:00:00 20,3 16,6 9 5 21 11 NNW 1029,5 0,0
11.09.2019 16:00:00 20,6 17,2 9 5 21 12 NNW 1029,3 0,0
11.09.2019 15:00:00 20,8 17,6 8 4 21 12 NNW 1029,3 0,0
11.09.2019 14:00:00 20,4 16,6 9 5 19 11 N 1029,6 -
11.09.2019 13:00:00 19,9 16,7 7 4 27 15 NNE 1029,5 0,0
11.09.2019 12:00:00 19,7 17,1 10 5 32 17 N 1029,0 0,0
11.09.2019 11:00:00 19,0 16,8 10 5 27 15 NNW 1028,5 0,0
11.09.2019 10:00:00 18,2 16,4 12 6 27 14 NNW 1028,3 0,0
11.09.2019 09:00:00 18,2 16,4 11 6 27 15 NNW 1027,6 0,0
11.09.2019 08:00:00 17,9 15,9 9 5 28 15 NNW 1026,9 -
11.09.2019 07:00:00 17,8 15,8 11 6 29 16 NNW 1026,2 0,0
11.09.2019 06:00:00 18,0 16,0 10 5 27 15 NNW 1025,7 0,0
11.09.2019 05:00:00 17,8 15,6 11 6 34 19 N 1025,4 0,0
11.09.2019 04:00:00 18,0 15,4 16 8 42 23 N 1025,4 0,0
11.09.2019 03:00:00 18,0 15,4 14 8 36 20 N 1025,3 0,0
11.09.2019 02:00:00 17,8 15,3 13 7 38 20 NNW 1024,9 -
11.09.2019 01:00:00 17,8 14,7 14 8 41 22 NNW 1024,7 0,0
11.09.2019 00:00:00 17,8 14,9 11 6 35 19 NNW 1024,4 0,0
10.09.2019 23:00:00 17,9 15,0 14 7 36 19 NNE 1024,4 0,0
10.09.2019 22:00:00 17,6 14,1 16 9 44 24 NNE 1023,7 0,0
10.09.2019 21:00:00 17,3 14,0 22 12 39 21 NNE 1022,8 0,0
10.09.2019 20:00:00 17,4 14,5 18 10 40 21 NNE 1021,6 -
10.09.2019 19:00:00 17,5 14,8 14 7 36 19 N 1021,1 0,0
10.09.2019 18:00:00 17,4 13,8 22 12 39 21 NNE 1020,3 0,0
10.09.2019 17:00:00 17,9 13,9 18 10 45 24 NNE 1019,4 0,0
10.09.2019 16:00:00 17,8 13,9 16 9 44 24 N 1018,9 0,0
10.09.2019 15:00:00 18,1 14,2 17 9 46 25 NNE 1018,4 0,3
10.09.2019 14:00:00 17,8 15,3 22 12 46 25 NNE 1017,8 -
10.09.2019 13:00:00 15,7 14,4 23 12 44 24 NW 1018,0 0,0
10.09.2019 12:00:00 15,6 13,7 27 14 51 27 NW 1017,4 0,1
10.09.2019 11:00:00 - - - - - - - - -
10.09.2019 10:00:00 - - - - - - - - -
10.09.2019 09:00:00 - - - - - - - - -
10.09.2019 08:00:00 - - - - - - - - -
10.09.2019 07:00:00 - - - - - - - - -
10.09.2019 06:00:00 - - - - - - - - -
10.09.2019 05:00:00 - - - - - - - - -

tt = temperature
td = dewpoint
ff = wind speed
fx = gusts
dd = wind direction
ppp = reduced air pressure
rr = precipitation

Next stations